createdAt,value
2018-12-06T00:00:17.262Z,48.63
2018-12-06T00:02:44.792Z,36.93
2018-12-06T00:05:12.310Z,47.97
2018-12-06T00:07:43.810Z,45.37
2018-12-06T00:10:11.334Z,38.93
2018-12-06T00:12:38.856Z,45.43
2018-12-06T00:15:18.235Z,41.90
2018-12-06T00:17:45.748Z,44.80
2018-12-06T00:20:13.311Z,38.07
2018-12-06T00:22:40.823Z,40.40
2018-12-06T00:25:08.344Z,31.00
2018-12-06T00:27:35.861Z,38.93
2018-12-06T00:30:15.337Z,45.13
2018-12-06T00:32:42.851Z,46.27
2018-12-06T00:35:10.427Z,33.93
2018-12-06T00:37:37.963Z,39.40
2018-12-06T00:40:05.523Z,30.60
2018-12-06T00:42:33.071Z,31.63
2018-12-06T00:45:00.840Z,44.37
2018-12-06T00:47:28.357Z,43.20
2018-12-06T00:49:55.862Z,34.97
2018-12-06T00:52:23.369Z,43.30
2018-12-06T00:54:50.877Z,27.67
2018-12-06T00:57:18.520Z,25.33
2018-12-06T00:59:46.143Z,24.87
2018-12-06T01:02:13.658Z,21.00
2018-12-06T01:04:41.315Z,19.63
2018-12-06T01:07:08.841Z,24.83
2018-12-06T01:09:36.363Z,17.73
2018-12-06T01:12:03.893Z,21.60
2018-12-06T01:14:37.107Z,22.27
2018-12-06T01:17:04.882Z,20.53
2018-12-06T01:19:32.548Z,24.33
2018-12-06T01:22:01.133Z,20.57
2018-12-06T01:24:28.901Z,25.90
2018-12-06T01:26:56.416Z,23.67
2018-12-06T01:29:23.934Z,27.83
2018-12-06T01:31:51.460Z,25.17
2018-12-06T01:34:18.991Z,22.93
2018-12-06T01:36:46.515Z,29.07
2018-12-06T01:39:14.037Z,25.80
2018-12-06T01:41:41.727Z,26.00
2018-12-06T01:44:09.243Z,26.80
2018-12-06T01:46:36.894Z,24.53
2018-12-06T01:49:04.409Z,25.40
2018-12-06T01:51:31.933Z,24.40
2018-12-06T01:53:59.449Z,24.73
2018-12-06T01:56:27.078Z,27.03
2018-12-06T01:58:54.585Z,24.73
2018-12-06T02:01:22.269Z,29.93
2018-12-06T02:03:49.793Z,29.03
2018-12-06T02:06:17.323Z,29.73
2018-12-06T02:08:44.821Z,23.97
2018-12-06T02:11:12.334Z,32.17
2018-12-06T02:13:39.921Z,26.50
2018-12-06T02:16:07.466Z,27.33
2018-12-06T02:18:34.980Z,30.33
2018-12-06T02:21:02.503Z,29.17
2018-12-06T02:23:30.030Z,27.27
2018-12-06T02:25:57.535Z,27.60
2018-12-06T02:28:25.049Z,25.50
2018-12-06T02:30:52.568Z,26.87
2018-12-06T02:33:20.214Z,32.67
2018-12-06T02:35:47.728Z,26.80
2018-12-06T02:38:15.486Z,29.80
2018-12-06T02:40:42.998Z,29.43
2018-12-06T02:43:10.935Z,27.87
2018-12-06T02:45:38.678Z,30.37
2018-12-06T02:48:06.190Z,26.37
2018-12-06T02:50:33.715Z,29.87
2018-12-06T02:53:01.238Z,30.87
2018-12-06T02:55:28.747Z,29.20
2018-12-06T02:57:56.271Z,27.50
2018-12-06T03:00:23.793Z,28.90
2018-12-06T03:02:51.302Z,32.13
2018-12-06T03:05:18.832Z,29.83
2018-12-06T03:07:46.450Z,31.77
2018-12-06T03:10:13.969Z,21.13
2018-12-06T03:12:41.487Z,31.07
2018-12-06T03:15:09.096Z,27.87
2018-12-06T03:17:36.640Z,28.67
2018-12-06T03:20:06.593Z,27.70
2018-12-06T03:22:34.461Z,27.17
2018-12-06T03:25:01.981Z,24.93
2018-12-06T03:27:29.579Z,29.43
2018-12-06T03:29:57.099Z,23.47
2018-12-06T03:32:24.624Z,22.83
2018-12-06T03:34:52.203Z,25.73
2018-12-06T03:37:19.706Z,24.13
2018-12-06T03:39:47.224Z,33.93
2018-12-06T03:42:14.732Z,21.13
2018-12-06T03:44:42.248Z,26.27
2018-12-06T03:47:09.770Z,25.87
2018-12-06T03:49:37.316Z,34.97
2018-12-06T03:52:04.856Z,29.27
2018-12-06T03:54:32.400Z,32.70
2018-12-06T03:56:59.933Z,33.70
2018-12-06T03:59:27.597Z,28.70
2018-12-06T04:01:55.108Z,31.97
2018-12-06T04:04:22.665Z,34.20
2018-12-06T04:06:50.173Z,31.47
2018-12-06T04:09:17.682Z,37.03
2018-12-06T04:11:45.201Z,31.50
2018-12-06T04:14:12.736Z,32.77
2018-12-06T04:16:40.269Z,43.83
2018-12-06T04:19:07.787Z,31.47
2018-12-06T04:21:35.308Z,31.77
2018-12-06T04:24:02.831Z,28.83
2018-12-06T04:26:30.354Z,26.03
2018-12-06T04:28:57.885Z,22.97
2018-12-06T04:31:25.415Z,17.07
2018-12-06T04:33:52.928Z,27.77
2018-12-06T04:36:20.445Z,25.30
2018-12-06T04:38:47.941Z,26.10
2018-12-06T04:41:15.479Z,22.17
2018-12-06T04:43:43.060Z,19.50
2018-12-06T04:46:10.562Z,20.67
2018-12-06T04:48:38.141Z,18.13
2018-12-06T04:51:05.657Z,18.53
2018-12-06T04:53:33.180Z,19.77
2018-12-06T04:56:00.686Z,19.37
2018-12-06T04:58:28.202Z,22.90
2018-12-06T05:00:55.734Z,17.60
2018-12-06T05:03:23.253Z,24.57
2018-12-06T05:05:50.768Z,20.77
2018-12-06T05:08:18.285Z,22.77
2018-12-06T05:10:45.813Z,15.63
2018-12-06T05:13:14.204Z,13.77
2018-12-06T05:15:41.853Z,15.97
2018-12-06T05:18:09.361Z,17.13
2018-12-06T05:20:36.924Z,15.77
2018-12-06T05:23:04.463Z,13.47
2018-12-06T05:25:31.985Z,15.13
2018-12-06T05:27:59.513Z,14.53
2018-12-06T05:30:27.018Z,18.73
2018-12-06T05:32:54.603Z,11.80
2018-12-06T05:35:22.125Z,14.03
2018-12-06T05:37:49.649Z,14.40
2018-12-06T05:40:17.156Z,14.03
2018-12-06T05:42:44.826Z,13.13
2018-12-06T05:45:12.331Z,17.23
2018-12-06T05:47:39.846Z,16.73
2018-12-06T05:50:07.529Z,16.77
2018-12-06T05:52:35.099Z,14.93
2018-12-06T05:55:02.615Z,16.37
2018-12-06T05:57:30.115Z,23.97
2018-12-06T05:59:57.655Z,20.00
2018-12-06T06:02:25.251Z,21.33
2018-12-06T06:04:52.808Z,19.20
2018-12-06T06:07:20.341Z,18.10
2018-12-06T06:09:47.869Z,20.10
2018-12-06T06:12:15.394Z,18.53
2018-12-06T06:14:42.917Z,22.17
2018-12-06T06:17:10.467Z,22.67
2018-12-06T06:19:37.983Z,18.67
2018-12-06T06:22:05.496Z,20.27
2018-12-06T06:24:33.010Z,20.97
2018-12-06T06:27:00.695Z,23.87
2018-12-06T06:29:28.212Z,19.97
2018-12-06T06:31:55.727Z,21.20
2018-12-06T06:34:23.239Z,16.00
2018-12-06T06:36:50.771Z,23.80
2018-12-06T06:39:18.265Z,27.67
2018-12-06T06:41:45.771Z,31.43
2018-12-06T06:44:13.287Z,27.47
2018-12-06T06:46:40.816Z,33.13
2018-12-06T06:49:13.871Z,37.90
2018-12-06T06:51:37.885Z,28.33
2018-12-06T06:54:05.415Z,34.10
2018-12-06T06:56:33.041Z,22.07
2018-12-06T06:59:00.547Z,22.80
2018-12-06T07:01:28.067Z,22.67
2018-12-06T07:03:55.593Z,19.93
2018-12-06T07:06:23.107Z,28.33
2018-12-06T07:08:50.631Z,30.47
2018-12-06T07:11:18.171Z,21.87
2018-12-06T07:13:45.691Z,28.33
2018-12-06T07:16:13.215Z,29.37
2018-12-06T07:18:40.968Z,31.77
2018-12-06T07:21:08.582Z,26.47
2018-12-06T07:23:36.143Z,24.20
2018-12-06T07:26:03.659Z,17.57
2018-12-06T07:28:31.186Z,33.77
2018-12-06T07:30:58.832Z,25.17
2018-12-06T07:33:26.361Z,29.93
2018-12-06T07:35:53.906Z,25.57
2018-12-06T07:38:21.429Z,31.03
2018-12-06T07:40:48.945Z,29.67
2018-12-06T07:43:16.483Z,24.90
2018-12-06T07:45:43.995Z,31.40
2018-12-06T07:48:11.523Z,28.03
2018-12-06T07:50:39.067Z,24.67
2018-12-06T07:53:06.585Z,28.20
2018-12-06T07:55:34.108Z,29.60
2018-12-06T07:58:01.849Z,26.30
2018-12-06T08:00:29.381Z,28.63
2018-12-06T08:02:56.896Z,23.87
2018-12-06T08:05:24.425Z,35.70
2018-12-06T08:07:52.059Z,37.23
2018-12-06T08:10:19.574Z,24.37
2018-12-06T08:12:47.093Z,27.43
2018-12-06T08:15:14.637Z,30.60
2018-12-06T08:17:42.145Z,31.40
2018-12-06T08:20:09.664Z,35.33
2018-12-06T08:22:37.207Z,35.10
2018-12-06T08:25:04.858Z,40.10
2018-12-06T08:27:32.394Z,39.37
2018-12-06T08:29:59.902Z,41.20
2018-12-06T08:32:27.432Z,38.80
2018-12-06T08:34:54.947Z,30.57
2018-12-06T08:37:22.454Z,36.33
2018-12-06T08:39:50.094Z,32.77
2018-12-06T08:42:17.613Z,36.83
2018-12-06T08:44:45.155Z,36.37
2018-12-06T08:47:12.668Z,30.77
2018-12-06T08:49:40.191Z,38.00
2018-12-06T08:52:07.701Z,32.43
2018-12-06T08:54:35.225Z,30.10
2018-12-06T08:57:02.747Z,30.63
2018-12-06T08:59:30.259Z,30.03
2018-12-06T09:01:57.793Z,26.93
2018-12-06T09:04:25.312Z,26.50
2018-12-06T09:06:52.845Z,33.10
2018-12-06T09:09:20.359Z,25.83
2018-12-06T09:11:48.003Z,25.40
2018-12-06T09:14:15.518Z,25.60
2018-12-06T09:16:43.043Z,25.37
2018-12-06T09:19:10.576Z,26.13
2018-12-06T09:21:38.081Z,26.43
2018-12-06T09:24:05.598Z,27.10
2018-12-06T09:26:33.116Z,29.83
2018-12-06T09:29:00.620Z,28.93
2018-12-06T09:31:28.134Z,26.80
2018-12-06T09:34:04.212Z,27.80
2018-12-06T09:36:31.720Z,29.83
2018-12-06T09:38:59.269Z,31.17
2018-12-06T09:41:26.798Z,30.20
2018-12-06T09:43:54.383Z,38.17
2018-12-06T09:46:21.892Z,25.53
2018-12-06T09:48:49.411Z,44.10
2018-12-06T09:51:16.927Z,33.33
2018-12-06T09:53:44.442Z,29.70
2018-12-06T09:56:11.962Z,27.83
2018-12-06T09:58:39.494Z,37.20
2018-12-06T10:01:07.026Z,31.23
2018-12-06T10:03:34.556Z,32.63
2018-12-06T10:06:02.258Z,24.80
2018-12-06T10:08:29.792Z,30.10
2018-12-06T10:10:57.306Z,32.37
2018-12-06T10:13:24.899Z,31.60
2018-12-06T10:15:52.416Z,31.57
2018-12-06T10:18:20.094Z,33.77
2018-12-06T10:20:47.603Z,29.23
2018-12-06T10:23:15.114Z,35.13
2018-12-06T10:25:42.629Z,31.80
2018-12-06T10:28:10.219Z,28.50
2018-12-06T10:30:37.856Z,28.60
2018-12-06T10:33:05.372Z,30.13
2018-12-06T10:35:33.039Z,29.00
2018-12-06T10:38:00.543Z,30.90
2018-12-06T10:40:28.075Z,29.43
2018-12-06T10:42:55.590Z,27.33
2018-12-06T10:45:23.098Z,22.10
2018-12-06T10:47:50.602Z,24.37
2018-12-06T10:50:18.110Z,28.60
2018-12-06T10:52:45.616Z,30.80
2018-12-06T10:55:13.131Z,27.27
2018-12-06T10:57:40.651Z,28.50
2018-12-06T11:00:10.141Z,32.40
2018-12-06T11:02:43.387Z,23.97
2018-12-06T11:05:10.971Z,28.10
2018-12-06T11:07:38.469Z,28.60
2018-12-06T11:10:06.941Z,30.57
2018-12-06T11:12:34.473Z,27.13
2018-12-06T11:15:30.979Z,29.05
2018-12-06T11:17:58.491Z,29.67
2018-12-06T11:20:26.019Z,20.90
2018-12-06T11:22:53.552Z,20.43
2018-12-06T11:25:21.067Z,31.47
2018-12-06T11:27:48.590Z,19.97
2018-12-06T11:30:16.091Z,22.60
2018-12-06T11:32:43.626Z,24.37
2018-12-06T11:35:11.161Z,21.07
2018-12-06T11:37:38.695Z,27.00
2018-12-06T11:40:06.275Z,23.10
2018-12-06T11:42:33.789Z,20.77
2018-12-06T11:45:01.305Z,18.43
2018-12-06T11:47:28.819Z,23.00
2018-12-06T11:49:56.331Z,28.53
2018-12-06T11:52:23.849Z,22.47
2018-12-06T11:54:51.620Z,19.30
2018-12-06T11:57:19.161Z,23.57
2018-12-06T11:59:46.684Z,21.20
2018-12-06T12:02:14.213Z,19.23
2018-12-06T12:04:41.741Z,19.63
2018-12-06T12:07:09.302Z,20.73
2018-12-06T12:09:37.188Z,20.93
2018-12-06T12:12:07.272Z,20.87
2018-12-06T12:14:34.795Z,16.27
2018-12-06T12:17:02.320Z,15.63
2018-12-06T12:19:29.879Z,13.17
2018-12-06T12:21:57.493Z,17.60
2018-12-06T12:24:25.021Z,13.37
2018-12-06T12:26:52.896Z,10.47
2018-12-06T12:29:20.424Z,9.77
2018-12-06T12:31:47.958Z,8.87
2018-12-06T12:34:15.500Z,10.80
2018-12-06T12:36:43.002Z,7.30
2018-12-06T12:39:10.523Z,10.77
2018-12-06T12:41:38.065Z,7.43
2018-12-06T12:44:05.586Z,6.77
2018-12-06T12:46:33.155Z,4.73
2018-12-06T12:49:00.669Z,5.50
2018-12-06T12:51:28.191Z,4.83
2018-12-06T12:53:55.714Z,4.43
2018-12-06T12:56:23.246Z,3.17
2018-12-06T12:58:50.779Z,3.10
2018-12-06T13:01:18.315Z,5.07
2018-12-06T13:03:45.827Z,5.47
2018-12-06T13:06:13.342Z,4.07
2018-12-06T13:08:40.864Z,4.03
2018-12-06T13:11:08.368Z,4.37
2018-12-06T13:13:35.884Z,3.63
2018-12-06T13:16:03.438Z,4.93
2018-12-06T13:18:30.942Z,4.93
2018-12-06T13:20:58.586Z,5.47
2018-12-06T13:23:26.128Z,6.93
2018-12-06T13:25:53.655Z,5.43
2018-12-06T13:28:21.171Z,3.83
2018-12-06T13:30:48.688Z,5.93
2018-12-06T13:33:16.273Z,5.33
2018-12-06T13:35:43.782Z,4.73
2018-12-06T13:38:11.313Z,4.53
2018-12-06T13:40:38.857Z,3.67
2018-12-06T13:43:06.358Z,3.63
2018-12-06T13:45:33.868Z,3.83
2018-12-06T13:48:01.392Z,4.33
2018-12-06T13:50:28.912Z,4.90
2018-12-06T13:52:56.426Z,4.87
2018-12-06T13:55:23.945Z,5.93
2018-12-06T13:57:51.482Z,5.50
2018-12-06T14:00:18.990Z,5.87
2018-12-06T14:02:46.491Z,6.13
2018-12-06T14:05:14.050Z,3.87
2018-12-06T14:07:41.566Z,3.80
2018-12-06T14:10:09.075Z,4.10
2018-12-06T14:12:36.583Z,2.67
2018-12-06T14:15:04.726Z,3.33
2018-12-06T14:17:32.236Z,3.80
2018-12-06T14:19:59.817Z,3.33
2018-12-06T14:22:27.332Z,4.23
2018-12-06T14:24:54.848Z,4.00
2018-12-06T14:27:22.365Z,5.53
2018-12-06T14:29:49.876Z,5.80
2018-12-06T14:32:17.524Z,7.77
2018-12-06T14:34:45.032Z,5.53
2018-12-06T14:37:12.578Z,4.80
2018-12-06T14:39:40.284Z,3.70
2018-12-06T14:42:07.908Z,4.20
2018-12-06T14:44:35.596Z,4.27
2018-12-06T14:47:03.300Z,4.03
2018-12-06T14:49:30.808Z,4.27
2018-12-06T14:51:58.336Z,4.17
2018-12-06T14:54:26.020Z,3.83
2018-12-06T14:56:53.532Z,5.10
2018-12-06T14:59:21.034Z,4.23
2018-12-06T15:01:48.571Z,4.80
2018-12-06T15:04:16.616Z,4.67
2018-12-06T15:06:44.118Z,4.20
2018-12-06T15:09:11.629Z,3.40
2018-12-06T15:11:39.156Z,4.33
2018-12-06T15:14:06.817Z,3.77
2018-12-06T15:16:34.322Z,2.70
2018-12-06T15:19:01.838Z,4.67
2018-12-06T15:21:29.346Z,3.13
2018-12-06T15:23:57.195Z,4.17
2018-12-06T15:26:24.884Z,3.10
2018-12-06T15:28:52.415Z,4.73
2018-12-06T15:31:20.128Z,4.00
2018-12-06T15:33:47.825Z,3.57
2018-12-06T15:36:15.339Z,4.70
2018-12-06T15:38:43.032Z,3.77
2018-12-06T15:41:10.621Z,3.30
2018-12-06T15:43:38.148Z,2.97
2018-12-06T15:46:06.600Z,4.70
2018-12-06T15:48:34.207Z,3.40
2018-12-06T15:51:01.722Z,3.63
2018-12-06T15:53:29.251Z,3.93
2018-12-06T15:55:56.753Z,5.57
2018-12-06T15:58:24.277Z,5.27
2018-12-06T16:00:51.799Z,5.90
2018-12-06T16:03:19.330Z,7.10
2018-12-06T16:05:46.836Z,4.27
2018-12-06T16:08:14.627Z,4.83
2018-12-06T16:10:42.213Z,6.23
2018-12-06T16:13:09.733Z,5.47
2018-12-06T16:15:37.251Z,8.97
2018-12-06T16:18:04.785Z,6.80
2018-12-06T16:20:32.294Z,6.20
2018-12-06T16:22:59.809Z,8.07
2018-12-06T16:25:27.315Z,7.93
2018-12-06T16:27:54.818Z,5.53
2018-12-06T16:30:22.429Z,6.87
2018-12-06T16:32:49.949Z,6.40
2018-12-06T16:35:17.481Z,6.23
2018-12-06T16:37:45.047Z,6.03
2018-12-06T16:40:12.547Z,8.37
2018-12-06T16:42:40.081Z,6.20
2018-12-06T16:45:07.587Z,8.43
2018-12-06T16:47:35.089Z,6.03
2018-12-06T16:50:03.588Z,7.40
2018-12-06T16:52:31.096Z,6.43
2018-12-06T16:54:58.611Z,7.83
2018-12-06T16:57:26.151Z,7.10
2018-12-06T16:59:53.667Z,7.20
2018-12-06T17:02:21.177Z,7.90
2018-12-06T17:04:48.689Z,8.07
2018-12-06T17:07:16.209Z,8.93
2018-12-06T17:09:43.726Z,9.23
2018-12-06T17:12:11.235Z,11.20
2018-12-06T17:14:38.754Z,10.43
2018-12-06T17:17:06.363Z,12.87
2018-12-06T17:19:33.872Z,10.33
2018-12-06T17:22:01.406Z,9.60
2018-12-06T17:24:28.918Z,14.10
2018-12-06T17:26:56.449Z,10.77
2018-12-06T17:29:24.068Z,11.73
2018-12-06T17:31:51.590Z,9.00
2018-12-06T17:34:19.105Z,10.03
2018-12-06T17:36:46.618Z,10.87
2018-12-06T17:39:14.128Z,10.13
2018-12-06T17:41:42.026Z,9.50
2018-12-06T17:44:09.543Z,9.47
2018-12-06T17:46:37.301Z,9.97
2018-12-06T17:49:05.586Z,8.57
2018-12-06T17:51:33.126Z,11.03
2018-12-06T17:54:01.090Z,8.33
2018-12-06T17:56:29.972Z,8.50
2018-12-06T17:58:57.504Z,10.30
2018-12-06T18:01:31.034Z,8.77
2018-12-06T18:03:58.539Z,10.60
2018-12-06T18:06:26.063Z,10.97
2018-12-06T18:08:53.565Z,12.63
2018-12-06T18:11:21.241Z,9.67
2018-12-06T18:13:48.751Z,10.63
2018-12-06T18:16:19.534Z,10.53
2018-12-06T18:18:45.971Z,10.03
2018-12-06T18:21:13.491Z,10.00
2018-12-06T18:23:41.007Z,10.67
2018-12-06T18:26:08.691Z,9.07
2018-12-06T18:28:36.217Z,17.17
2018-12-06T18:31:03.727Z,11.67
2018-12-06T18:33:31.233Z,12.90
2018-12-06T18:35:58.748Z,16.23
2018-12-06T18:38:26.270Z,13.60
2018-12-06T18:40:53.799Z,13.13
2018-12-06T18:43:21.310Z,11.00
2018-12-06T18:45:48.811Z,14.83
2018-12-06T18:48:16.319Z,10.57
2018-12-06T18:50:43.840Z,16.47
2018-12-06T18:53:11.360Z,13.63
2018-12-06T18:55:39.006Z,11.20
2018-12-06T18:58:06.516Z,17.13
2018-12-06T19:00:34.299Z,12.50
2018-12-06T19:03:01.813Z,14.60
2018-12-06T19:05:29.405Z,21.60
2018-12-06T19:07:56.911Z,12.17
2018-12-06T19:10:24.426Z,19.50
2018-12-06T19:12:51.951Z,15.50
2018-12-06T19:15:19.485Z,17.13
2018-12-06T19:17:47.014Z,17.43
2018-12-06T19:20:14.532Z,16.63
2018-12-06T19:22:42.078Z,20.50
2018-12-06T19:25:09.598Z,21.13
2018-12-06T19:27:37.143Z,21.03
2018-12-06T19:30:07.442Z,16.77
2018-12-06T19:32:34.950Z,19.63
2018-12-06T19:35:02.453Z,21.60
2018-12-06T19:37:30.741Z,16.17
2018-12-06T19:39:58.418Z,15.33
2018-12-06T19:42:25.931Z,21.60
2018-12-06T19:44:53.443Z,21.53
2018-12-06T19:47:20.975Z,18.33
2018-12-06T19:49:48.488Z,24.90
2018-12-06T19:52:16.070Z,20.77
2018-12-06T19:54:43.591Z,18.77
2018-12-06T19:57:11.135Z,19.00
2018-12-06T19:59:38.641Z,20.10
2018-12-06T20:02:06.146Z,15.90
2018-12-06T20:04:33.657Z,27.37
2018-12-06T20:07:01.166Z,19.50
2018-12-06T20:09:28.685Z,16.93
2018-12-06T20:11:56.247Z,22.30
2018-12-06T20:14:23.783Z,23.33
2018-12-06T20:16:51.289Z,23.20
2018-12-06T20:19:18.819Z,23.40
2018-12-06T20:21:46.323Z,22.70
2018-12-06T20:24:13.833Z,20.73
2018-12-06T20:26:41.489Z,24.63
2018-12-06T20:29:09.023Z,19.50
2018-12-06T20:31:36.553Z,18.37
2018-12-06T20:34:04.089Z,19.77
2018-12-06T20:36:31.619Z,21.93
2018-12-06T20:38:59.371Z,16.30
2018-12-06T20:41:26.956Z,21.90
2018-12-06T20:43:54.463Z,25.93
2018-12-06T20:46:21.972Z,23.00
2018-12-06T20:48:49.520Z,24.17
2018-12-06T20:51:17.107Z,23.80
2018-12-06T20:53:44.617Z,22.33
2018-12-06T20:56:12.124Z,22.60
2018-12-06T20:58:39.634Z,22.40
2018-12-06T21:01:07.161Z,32.83
2018-12-06T21:03:34.677Z,22.80
2018-12-06T21:06:02.195Z,28.07
2018-12-06T21:08:29.758Z,22.57
2018-12-06T21:10:57.350Z,19.00
2018-12-06T21:13:24.878Z,21.97
2018-12-06T21:15:52.509Z,22.77
2018-12-06T21:18:20.032Z,23.87
2018-12-06T21:20:47.542Z,18.67
2018-12-06T21:23:15.052Z,23.17
2018-12-06T21:25:42.566Z,24.83
2018-12-06T21:28:10.220Z,24.33
2018-12-06T21:30:37.843Z,25.53
2018-12-06T21:33:05.357Z,30.57
2018-12-06T21:35:32.887Z,29.10
2018-12-06T21:38:00.404Z,19.97
2018-12-06T21:40:27.919Z,21.43
2018-12-06T21:42:55.433Z,20.17
2018-12-06T21:45:22.961Z,21.87
2018-12-06T21:47:50.475Z,14.70
2018-12-06T21:50:18.052Z,19.87
2018-12-06T21:52:45.567Z,17.20
2018-12-06T21:55:13.097Z,23.37
2018-12-06T21:57:40.605Z,16.50
2018-12-06T22:00:08.200Z,20.70
2018-12-06T22:02:35.800Z,15.10
2018-12-06T22:05:03.487Z,20.67
2018-12-06T22:07:30.994Z,17.30
2018-12-06T22:09:58.517Z,16.77
2018-12-06T22:12:26.046Z,20.57
2018-12-06T22:14:53.562Z,19.90
2018-12-06T22:17:21.153Z,16.90
2018-12-06T22:19:48.674Z,15.97
2018-12-06T22:22:16.200Z,16.00
2018-12-06T22:24:43.710Z,16.07
2018-12-06T22:27:11.219Z,17.80
2018-12-06T22:29:38.745Z,16.67
2018-12-06T22:32:06.261Z,19.30
2018-12-06T22:34:33.775Z,16.73
2018-12-06T22:37:01.278Z,16.17
2018-12-06T22:39:28.887Z,16.63
2018-12-06T22:41:56.390Z,14.17
2018-12-06T22:44:23.916Z,14.30
2018-12-06T22:46:51.457Z,18.70
2018-12-06T22:49:18.987Z,14.17
2018-12-06T22:51:46.519Z,13.80
2018-12-06T22:54:14.025Z,12.80
2018-12-06T22:56:41.552Z,16.87
2018-12-06T22:59:09.152Z,18.47
2018-12-06T23:01:39.788Z,16.40
2018-12-06T23:04:07.711Z,17.67
2018-12-06T23:06:35.247Z,13.67
2018-12-06T23:09:03.735Z,15.03
2018-12-06T23:11:31.270Z,13.40
2018-12-06T23:13:58.809Z,13.83
2018-12-06T23:16:26.319Z,14.90
2018-12-06T23:18:53.832Z,14.17
2018-12-06T23:21:21.375Z,14.43
2018-12-06T23:23:48.901Z,12.20
2018-12-06T23:26:16.511Z,14.43
2018-12-06T23:28:44.035Z,17.23
2018-12-06T23:31:11.627Z,14.40
2018-12-06T23:33:39.155Z,14.13
2018-12-06T23:36:06.675Z,12.13
2018-12-06T23:38:34.196Z,12.57
2018-12-06T23:41:01.931Z,16.30
2018-12-06T23:43:29.458Z,12.87
2018-12-06T23:45:56.983Z,16.07
2018-12-06T23:48:24.492Z,9.37
2018-12-06T23:50:52.758Z,9.83
2018-12-06T23:53:20.281Z,15.23
2018-12-06T23:55:47.817Z,9.40
2018-12-06T23:58:15.346Z,10.03
